sensor_id;sensor_type;location;lat;lon;timestamp;temperature;humidity
15394;DHT22;7795;47.986;11.868;2023-04-24T00:01:32;14.60;76.00
15394;DHT22;7795;47.986;11.868;2023-04-24T00:03:59;14.60;76.00
15394;DHT22;7795;47.986;11.868;2023-04-24T00:06:25;14.60;76.10
15394;DHT22;7795;47.986;11.868;2023-04-24T00:08:59;14.60;76.00
15394;DHT22;7795;47.986;11.868;2023-04-24T00:11:26;14.60;76.00
15394;DHT22;7795;47.986;11.868;2023-04-24T00:13:52;14.60;76.00
15394;DHT22;7795;47.986;11.868;2023-04-24T00:16:18;14.60;76.00
15394;DHT22;7795;47.986;11.868;2023-04-24T00:18:43;14.60;76.00
15394;DHT22;7795;47.986;11.868;2023-04-24T00:21:10;14.60;76.10
15394;DHT22;7795;47.986;11.868;2023-04-24T00:23:36;14.60;76.00
15394;DHT22;7795;47.986;11.868;2023-04-24T00:26:03;14.60;75.80
15394;DHT22;7795;47.986;11.868;2023-04-24T00:28:29;14.50;75.60
15394;DHT22;7795;47.986;11.868;2023-04-24T00:30:55;14.50;76.40
15394;DHT22;7795;47.986;11.868;2023-04-24T00:33:20;14.50;75.80
15394;DHT22;7795;47.986;11.868;2023-04-24T00:35:46;14.50;75.80
15394;DHT22;7795;47.986;11.868;2023-04-24T00:38:12;14.50;75.80
15394;DHT22;7795;47.986;11.868;2023-04-24T00:40:37;14.50;75.80
15394;DHT22;7795;47.986;11.868;2023-04-24T00:43:05;14.50;75.70
15394;DHT22;7795;47.986;11.868;2023-04-24T00:45:31;14.50;76.40
15394;DHT22;7795;47.986;11.868;2023-04-24T00:47:57;14.50;75.60
15394;DHT22;7795;47.986;11.868;2023-04-24T00:50:24;14.50;75.70
15394;DHT22;7795;47.986;11.868;2023-04-24T00:52:50;14.50;75.60
15394;DHT22;7795;47.986;11.868;2023-04-24T00:55:16;14.40;75.40
15394;DHT22;7795;47.986;11.868;2023-04-24T00:57:42;14.40;75.40
15394;DHT22;7795;47.986;11.868;2023-04-24T01:00:11;14.40;75.40
15394;DHT22;7795;47.986;11.868;2023-04-24T01:02:38;14.40;75.50
15394;DHT22;7795;47.986;11.868;2023-04-24T01:05:06;14.30;75.50
15394;DHT22;7795;47.986;11.868;2023-04-24T01:07:33;14.40;75.60
15394;DHT22;7795;47.986;11.868;2023-04-24T01:09:58;14.30;75.60
15394;DHT22;7795;47.986;11.868;2023-04-24T01:12:24;14.30;75.60
15394;DHT22;7795;47.986;11.868;2023-04-24T01:14:50;14.30;75.70
15394;DHT22;7795;47.986;11.868;2023-04-24T01:17:17;14.30;76.10
15394;DHT22;7795;47.986;11.868;2023-04-24T01:19:43;14.30;76.10
15394;DHT22;7795;47.986;11.868;2023-04-24T01:22:13;14.30;76.00
15394;DHT22;7795;47.986;11.868;2023-04-24T01:24:39;14.30;76.20
15394;DHT22;7795;47.986;11.868;2023-04-24T01:27:05;14.30;76.20
15394;DHT22;7795;47.986;11.868;2023-04-24T01:29:31;14.30;76.10
15394;DHT22;7795;47.986;11.868;2023-04-24T01:31:56;14.30;76.10
15394;DHT22;7795;47.986;11.868;2023-04-24T01:34:23;14.30;76.20
15394;DHT22;7795;47.986;11.868;2023-04-24T01:36:49;14.30;76.30
15394;DHT22;7795;47.986;11.868;2023-04-24T01:39:17;14.30;76.30
15394;DHT22;7795;47.986;11.868;2023-04-24T01:41:43;14.30;76.40
15394;DHT22;7795;47.986;11.868;2023-04-24T01:44:08;14.30;76.40
15394;DHT22;7795;47.986;11.868;2023-04-24T01:46:34;14.20;76.50
15394;DHT22;7795;47.986;11.868;2023-04-24T01:49:01;14.20;76.50
15394;DHT22;7795;47.986;11.868;2023-04-24T01:51:27;14.20;76.60
15394;DHT22;7795;47.986;11.868;2023-04-24T01:53:53;14.20;76.60
15394;DHT22;7795;47.986;11.868;2023-04-24T01:56:21;14.20;76.50
15394;DHT22;7795;47.986;11.868;2023-04-24T01:58:48;14.20;76.70
15394;DHT22;7795;47.986;11.868;2023-04-24T02:01:17;14.20;76.60
15394;DHT22;7795;47.986;11.868;2023-04-24T02:03:43;14.10;76.50
15394;DHT22;7795;47.986;11.868;2023-04-24T02:06:08;14.10;76.10
15394;DHT22;7795;47.986;11.868;2023-04-24T02:08:34;14.10;75.80
15394;DHT22;7795;47.986;11.868;2023-04-24T02:11:00;14.10;75.70
15394;DHT22;7795;47.986;11.868;2023-04-24T02:13:29;14.10;75.60
15394;DHT22;7795;47.986;11.868;2023-04-24T02:15:54;14.00;75.60
15394;DHT22;7795;47.986;11.868;2023-04-24T02:18:20;14.00;75.60
15394;DHT22;7795;47.986;11.868;2023-04-24T02:20:48;14.00;75.60
15394;DHT22;7795;47.986;11.868;2023-04-24T02:23:13;14.00;75.60
15394;DHT22;7795;47.986;11.868;2023-04-24T02:25:40;14.00;75.60
15394;DHT22;7795;47.986;11.868;2023-04-24T02:28:05;14.00;75.60
15394;DHT22;7795;47.986;11.868;2023-04-24T02:30:33;13.90;75.60
15394;DHT22;7795;47.986;11.868;2023-04-24T02:32:59;14.00;75.60
15394;DHT22;7795;47.986;11.868;2023-04-24T02:35:25;13.90;75.60
15394;DHT22;7795;47.986;11.868;2023-04-24T02:37:51;13.90;75.70
15394;DHT22;7795;47.986;11.868;2023-04-24T02:40:17;13.90;75.70
15394;DHT22;7795;47.986;11.868;2023-04-24T02:42:42;13.90;75.60
15394;DHT22;7795;47.986;11.868;2023-04-24T02:45:09;13.90;75.60
15394;DHT22;7795;47.986;11.868;2023-04-24T02:47:36;13.90;75.50
15394;DHT22;7795;47.986;11.868;2023-04-24T02:50:02;13.80;75.60
15394;DHT22;7795;47.986;11.868;2023-04-24T02:52:28;13.80;76.40
15394;DHT22;7795;47.986;11.868;2023-04-24T02:54:55;13.80;75.70
15394;DHT22;7795;47.986;11.868;2023-04-24T02:57:20;13.80;75.70
15394;DHT22;7795;47.986;11.868;2023-04-24T02:59:46;13.80;75.70
15394;DHT22;7795;47.986;11.868;2023-04-24T03:02:12;13.80;75.80
15394;DHT22;7795;47.986;11.868;2023-04-24T03:04:39;13.70;75.80
15394;DHT22;7795;47.986;11.868;2023-04-24T03:07:05;13.70;75.90
15394;DHT22;7795;47.986;11.868;2023-04-24T03:09:31;13.70;75.80
15394;DHT22;7795;47.986;11.868;2023-04-24T03:11:57;13.70;76.00
15394;DHT22;7795;47.986;11.868;2023-04-24T03:14:23;13.70;76.00
15394;DHT22;7795;47.986;11.868;2023-04-24T03:16:49;13.70;76.00
15394;DHT22;7795;47.986;11.868;2023-04-24T03:19:15;13.60;75.90
15394;DHT22;7795;47.986;11.868;2023-04-24T03:21:42;13.60;75.90
15394;DHT22;7795;47.986;11.868;2023-04-24T03:24:08;13.60;76.80
15394;DHT22;7795;47.986;11.868;2023-04-24T03:26:35;13.50;76.20
15394;DHT22;7795;47.986;11.868;2023-04-24T03:29:00;13.50;76.30
15394;DHT22;7795;47.986;11.868;2023-04-24T03:31:26;13.50;76.50
15394;DHT22;7795;47.986;11.868;2023-04-24T03:33:52;13.50;76.60
15394;DHT22;7795;47.986;11.868;2023-04-24T03:36:18;13.50;76.80
15394;DHT22;7795;47.986;11.868;2023-04-24T03:38:46;13.50;76.90
15394;DHT22;7795;47.986;11.868;2023-04-24T03:41:12;13.40;76.90
15394;DHT22;7795;47.986;11.868;2023-04-24T03:43:38;13.40;77.00
15394;DHT22;7795;47.986;11.868;2023-04-24T03:46:05;13.40;77.10
15394;DHT22;7795;47.986;11.868;2023-04-24T03:48:31;13.40;77.10
15394;DHT22;7795;47.986;11.868;2023-04-24T03:50:56;13.40;77.10
15394;DHT22;7795;47.986;11.868;2023-04-24T03:53:22;13.40;77.20
15394;DHT22;7795;47.986;11.868;2023-04-24T03:55:49;13.40;77.20
15394;DHT22;7795;47.986;11.868;2023-04-24T03:58:15;13.40;77.20
15394;DHT22;7795;47.986;11.868;2023-04-24T04:00:41;13.40;77.20
15394;DHT22;7795;47.986;11.868;2023-04-24T04:03:07;13.40;77.30
15394;DHT22;7795;47.986;11.868;2023-04-24T04:05:33;13.40;77.30
15394;DHT22;7795;47.986;11.868;2023-04-24T04:07:58;13.40;77.30
15394;DHT22;7795;47.986;11.868;2023-04-24T04:10:24;13.40;77.30
15394;DHT22;7795;47.986;11.868;2023-04-24T04:12:51;13.30;77.20
15394;DHT22;7795;47.986;11.868;2023-04-24T04:15:17;13.30;77.20
15394;DHT22;7795;47.986;11.868;2023-04-24T04:17:42;13.30;77.10
15394;DHT22;7795;47.986;11.868;2023-04-24T04:20:09;13.30;77.20
15394;DHT22;7795;47.986;11.868;2023-04-24T04:22:35;13.30;77.20
15394;DHT22;7795;47.986;11.868;2023-04-24T04:25:01;13.30;77.30
15394;DHT22;7795;47.986;11.868;2023-04-24T04:27:27;13.20;77.40
15394;DHT22;7795;47.986;11.868;2023-04-24T04:29:55;13.20;77.50
15394;DHT22;7795;47.986;11.868;2023-04-24T04:32:22;13.20;77.60
15394;DHT22;7795;47.986;11.868;2023-04-24T04:34:47;13.20;77.60
15394;DHT22;7795;47.986;11.868;2023-04-24T04:37:14;13.30;77.80
15394;DHT22;7795;47.986;11.868;2023-04-24T04:39:40;13.30;77.90
15394;DHT22;7795;47.986;11.868;2023-04-24T04:42:06;13.30;77.90
15394;DHT22;7795;47.986;11.868;2023-04-24T04:44:32;13.30;77.90
15394;DHT22;7795;47.986;11.868;2023-04-24T04:46:59;13.30;77.90
15394;DHT22;7795;47.986;11.868;2023-04-24T04:49:25;13.30;78.00
15394;DHT22;7795;47.986;11.868;2023-04-24T04:51:53;13.30;77.90
15394;DHT22;7795;47.986;11.868;2023-04-24T04:54:19;13.40;77.90
15394;DHT22;7795;47.986;11.868;2023-04-24T04:56:45;13.40;78.00
15394;DHT22;7795;47.986;11.868;2023-04-24T04:59:11;13.40;77.90
15394;DHT22;7795;47.986;11.868;2023-04-24T05:01:38;13.40;78.00
15394;DHT22;7795;47.986;11.868;2023-04-24T05:04:05;13.40;78.70
15394;DHT22;7795;47.986;11.868;2023-04-24T05:06:30;13.40;77.90
15394;DHT22;7795;47.986;11.868;2023-04-24T05:08:56;13.40;77.90
15394;DHT22;7795;47.986;11.868;2023-04-24T05:11:22;13.40;77.90
15394;DHT22;7795;47.986;11.868;2023-04-24T05:13:48;13.40;78.00
15394;DHT22;7795;47.986;11.868;2023-04-24T05:16:14;13.40;78.10
15394;DHT22;7795;47.986;11.868;2023-04-24T05:18:39;13.40;78.10
15394;DHT22;7795;47.986;11.868;2023-04-24T05:21:07;13.40;78.10
15394;DHT22;7795;47.986;11.868;2023-04-24T05:23:32;13.40;78.10
15394;DHT22;7795;47.986;11.868;2023-04-24T05:25:58;13.40;78.00
15394;DHT22;7795;47.986;11.868;2023-04-24T05:28:24;13.40;78.10
15394;DHT22;7795;47.986;11.868;2023-04-24T05:30:53;13.40;78.10
15394;DHT22;7795;47.986;11.868;2023-04-24T05:33:19;13.40;78.10
15394;DHT22;7795;47.986;11.868;2023-04-24T05:35:45;13.40;78.10
15394;DHT22;7795;47.986;11.868;2023-04-24T05:38:13;13.50;78.20
15394;DHT22;7795;47.986;11.868;2023-04-24T05:40:39;13.50;78.10
15394;DHT22;7795;47.986;11.868;2023-04-24T05:43:04;13.50;78.00
15394;DHT22;7795;47.986;11.868;2023-04-24T05:45:30;13.50;77.90
15394;DHT22;7795;47.986;11.868;2023-04-24T05:47:57;13.50;77.90
15394;DHT22;7795;47.986;11.868;2023-04-24T05:50:23;13.50;78.00
15394;DHT22;7795;47.986;11.868;2023-04-24T05:52:48;13.50;78.10
15394;DHT22;7795;47.986;11.868;2023-04-24T05:55:16;13.50;77.90
15394;DHT22;7795;47.986;11.868;2023-04-24T05:57:42;13.50;77.80
15394;DHT22;7795;47.986;11.868;2023-04-24T06:00:09;13.50;77.80
15394;DHT22;7795;47.986;11.868;2023-04-24T06:02:37;13.50;77.90
15394;DHT22;7795;47.986;11.868;2023-04-24T06:05:03;13.60;77.90
15394;DHT22;7795;47.986;11.868;2023-04-24T06:07:30;13.60;77.90
15394;DHT22;7795;47.986;11.868;2023-04-24T06:09:55;13.60;77.90
15394;DHT22;7795;47.986;11.868;2023-04-24T06:12:23;13.70;78.00
15394;DHT22;7795;47.986;11.868;2023-04-24T06:14:49;13.70;77.90
15394;DHT22;7795;47.986;11.868;2023-04-24T06:17:15;13.70;77.80
15394;DHT22;7795;47.986;11.868;2023-04-24T06:19:41;13.70;77.70
15394;DHT22;7795;47.986;11.868;2023-04-24T06:22:07;13.80;77.50
15394;DHT22;7795;47.986;11.868;2023-04-24T06:24:34;13.80;77.40
15394;DHT22;7795;47.986;11.868;2023-04-24T06:27:00;13.80;77.10
15394;DHT22;7795;47.986;11.868;2023-04-24T06:29:28;13.80;77.00
15394;DHT22;7795;47.986;11.868;2023-04-24T06:31:54;13.90;76.90
15394;DHT22;7795;47.986;11.868;2023-04-24T06:34:19;13.90;76.80
15394;DHT22;7795;47.986;11.868;2023-04-24T06:36:46;13.90;76.60
15394;DHT22;7795;47.986;11.868;2023-04-24T06:39:12;13.90;76.60
15394;DHT22;7795;47.986;11.868;2023-04-24T06:41:38;13.90;76.50
15394;DHT22;7795;47.986;11.868;2023-04-24T06:44:05;14.00;76.60
15394;DHT22;7795;47.986;11.868;2023-04-24T06:46:32;14.00;76.60
15394;DHT22;7795;47.986;11.868;2023-04-24T06:48:58;14.00;76.60
15394;DHT22;7795;47.986;11.868;2023-04-24T06:51:24;14.10;76.50
15394;DHT22;7795;47.986;11.868;2023-04-24T06:53:50;14.10;76.40
15394;DHT22;7795;47.986;11.868;2023-04-24T06:56:16;14.10;76.30
15394;DHT22;7795;47.986;11.868;2023-04-24T06:58:42;14.10;76.30
15394;DHT22;7795;47.986;11.868;2023-04-24T07:01:08;14.10;76.30
15394;DHT22;7795;47.986;11.868;2023-04-24T07:03:35;14.20;76.20
15394;DHT22;7795;47.986;11.868;2023-04-24T07:06:01;14.20;76.00
15394;DHT22;7795;47.986;11.868;2023-04-24T07:08:28;14.20;76.10
15394;DHT22;7795;47.986;11.868;2023-04-24T07:10:56;14.30;76.10
15394;DHT22;7795;47.986;11.868;2023-04-24T07:13:22;14.30;76.00
15394;DHT22;7795;47.986;11.868;2023-04-24T07:15:48;14.40;75.80
15394;DHT22;7795;47.986;11.868;2023-04-24T07:18:16;14.40;75.70
15394;DHT22;7795;47.986;11.868;2023-04-24T07:20:43;14.50;75.80
15394;DHT22;7795;47.986;11.868;2023-04-24T07:23:09;14.50;75.60
15394;DHT22;7795;47.986;11.868;2023-04-24T07:25:35;14.50;75.60
15394;DHT22;7795;47.986;11.868;2023-04-24T07:28:01;14.60;75.60
15394;DHT22;7795;47.986;11.868;2023-04-24T07:30:26;14.60;75.40
15394;DHT22;7795;47.986;11.868;2023-04-24T07:32:54;14.70;76.30
15394;DHT22;7795;47.986;11.868;2023-04-24T07:35:20;14.70;75.40
15394;DHT22;7795;47.986;11.868;2023-04-24T07:37:48;14.80;75.20
15394;DHT22;7795;47.986;11.868;2023-04-24T07:40:13;14.80;75.00
15394;DHT22;7795;47.986;11.868;2023-04-24T07:42:39;14.90;75.10
15394;DHT22;7795;47.986;11.868;2023-04-24T07:45:06;15.00;75.00
15394;DHT22;7795;47.986;11.868;2023-04-24T07:47:32;15.00;74.50
15394;DHT22;7795;47.986;11.868;2023-04-24T07:49:59;15.10;74.40
15394;DHT22;7795;47.986;11.868;2023-04-24T07:52:25;15.10;74.30
15394;DHT22;7795;47.986;11.868;2023-04-24T07:54:52;15.20;74.10
15394;DHT22;7795;47.986;11.868;2023-04-24T07:57:24;15.20;73.80
15394;DHT22;7795;47.986;11.868;2023-04-24T07:59:49;15.20;73.80
15394;DHT22;7795;47.986;11.868;2023-04-24T08:02:15;15.30;74.60
15394;DHT22;7795;47.986;11.868;2023-04-24T08:04:41;15.30;73.70
15394;DHT22;7795;47.986;11.868;2023-04-24T08:07:07;15.30;73.60
15394;DHT22;7795;47.986;11.868;2023-04-24T08:09:33;15.40;73.70
15394;DHT22;7795;47.986;11.868;2023-04-24T08:12:00;15.40;73.20
15394;DHT22;7795;47.986;11.868;2023-04-24T08:14:26;15.50;73.30
15394;DHT22;7795;47.986;11.868;2023-04-24T08:16:54;15.50;73.20
15394;DHT22;7795;47.986;11.868;2023-04-24T08:19:20;15.60;73.90
15394;DHT22;7795;47.986;11.868;2023-04-24T08:21:46;15.70;73.00
15394;DHT22;7795;47.986;11.868;2023-04-24T08:24:12;15.70;72.80
15394;DHT22;7795;47.986;11.868;2023-04-24T08:26:38;15.70;72.60
15394;DHT22;7795;47.986;11.868;2023-04-24T08:29:05;15.80;72.30
15394;DHT22;7795;47.986;11.868;2023-04-24T08:31:32;15.80;72.00
15394;DHT22;7795;47.986;11.868;2023-04-24T08:33:58;15.80;71.90
15394;DHT22;7795;47.986;11.868;2023-04-24T08:36:25;15.80;71.60
15394;DHT22;7795;47.986;11.868;2023-04-24T08:38:51;15.80;71.50
15394;DHT22;7795;47.986;11.868;2023-04-24T08:41:18;15.70;71.20
15394;DHT22;7795;47.986;11.868;2023-04-24T08:43:45;15.70;70.90
15394;DHT22;7795;47.986;11.868;2023-04-24T08:46:13;15.60;71.00
15394;DHT22;7795;47.986;11.868;2023-04-24T08:48:40;15.60;71.10
15394;DHT22;7795;47.986;11.868;2023-04-24T08:51:07;15.50;71.20
15394;DHT22;7795;47.986;11.868;2023-04-24T08:53:35;15.50;71.10
15394;DHT22;7795;47.986;11.868;2023-04-24T08:56:01;15.50;71.30
15394;DHT22;7795;47.986;11.868;2023-04-24T08:58:28;15.50;71.40
15394;DHT22;7795;47.986;11.868;2023-04-24T09:00:55;15.40;72.00
15394;DHT22;7795;47.986;11.868;2023-04-24T09:03:22;15.40;71.30
15394;DHT22;7795;47.986;11.868;2023-04-24T09:05:49;15.40;71.10
15394;DHT22;7795;47.986;11.868;2023-04-24T09:08:18;15.40;70.70
15394;DHT22;7795;47.986;11.868;2023-04-24T09:10:44;15.40;70.80
15394;DHT22;7795;47.986;11.868;2023-04-24T09:13:10;15.30;70.90
15394;DHT22;7795;47.986;11.868;2023-04-24T09:15:36;15.30;70.80
15394;DHT22;7795;47.986;11.868;2023-04-24T09:18:02;15.30;70.20
15394;DHT22;7795;47.986;11.868;2023-04-24T09:20:30;15.20;70.40
15394;DHT22;7795;47.986;11.868;2023-04-24T09:22:56;15.10;70.10
15394;DHT22;7795;47.986;11.868;2023-04-24T09:25:25;15.10;70.20
15394;DHT22;7795;47.986;11.868;2023-04-24T09:28:00;15.00;70.10
15394;DHT22;7795;47.986;11.868;2023-04-24T09:30:26;14.90;70.10
15394;DHT22;7795;47.986;11.868;2023-04-24T09:33:09;14.90;70.40
15394;DHT22;7795;47.986;11.868;2023-04-24T09:35:40;14.90;70.00
15394;DHT22;7795;47.986;11.868;2023-04-24T09:38:06;14.80;69.90
15394;DHT22;7795;47.986;11.868;2023-04-24T09:40:34;14.80;70.10
15394;DHT22;7795;47.986;11.868;2023-04-24T09:43:00;14.80;70.00
15394;DHT22;7795;47.986;11.868;2023-04-24T09:45:28;14.70;70.00
15394;DHT22;7795;47.986;11.868;2023-04-24T09:47:55;14.70;70.00
15394;DHT22;7795;47.986;11.868;2023-04-24T09:50:21;14.70;70.00
15394;DHT22;7795;47.986;11.868;2023-04-24T09:52:58;14.60;70.10
15394;DHT22;7795;47.986;11.868;2023-04-24T09:55:24;14.70;69.90
15394;DHT22;7795;47.986;11.868;2023-04-24T09:57:52;14.70;70.00
15394;DHT22;7795;47.986;11.868;2023-04-24T10:00:20;14.70;69.90
15394;DHT22;7795;47.986;11.868;2023-04-24T10:02:50;14.70;70.20
15394;DHT22;7795;47.986;11.868;2023-04-24T10:05:17;14.80;70.40
15394;DHT22;7795;47.986;11.868;2023-04-24T10:07:43;14.90;70.50
15394;DHT22;7795;47.986;11.868;2023-04-24T10:10:11;15.00;70.00
15394;DHT22;7795;47.986;11.868;2023-04-24T10:12:37;15.00;69.60
15394;DHT22;7795;47.986;11.868;2023-04-24T10:15:03;15.10;69.80
15394;DHT22;7795;47.986;11.868;2023-04-24T10:17:31;15.20;69.60
15394;DHT22;7795;47.986;11.868;2023-04-24T10:19:58;15.30;69.50
15394;DHT22;7795;47.986;11.868;2023-04-24T10:22:25;15.40;69.20
15394;DHT22;7795;47.986;11.868;2023-04-24T10:24:52;15.50;69.20
15394;DHT22;7795;47.986;11.868;2023-04-24T10:27:20;15.50;69.60
15394;DHT22;7795;47.986;11.868;2023-04-24T10:29:47;15.60;68.70
15394;DHT22;7795;47.986;11.868;2023-04-24T10:32:14;15.70;69.00
15394;DHT22;7795;47.986;11.868;2023-04-24T10:34:39;15.80;68.60
15394;DHT22;7795;47.986;11.868;2023-04-24T10:37:05;15.90;68.40
15394;DHT22;7795;47.986;11.868;2023-04-24T10:39:31;16.00;68.00
15394;DHT22;7795;47.986;11.868;2023-04-24T10:41:59;16.10;68.30
15394;DHT22;7795;47.986;11.868;2023-04-24T10:44:36;16.30;68.40
15394;DHT22;7795;47.986;11.868;2023-04-24T10:47:02;16.40;67.10
15394;DHT22;7795;47.986;11.868;2023-04-24T10:49:28;16.50;67.60
15394;DHT22;7795;47.986;11.868;2023-04-24T10:52:00;16.60;67.30
15394;DHT22;7795;47.986;11.868;2023-04-24T10:54:27;16.70;66.00
15394;DHT22;7795;47.986;11.868;2023-04-24T10:57:26;16.80;65.40
15394;DHT22;7795;47.986;11.868;2023-04-24T11:00:18;16.80;64.30
15394;DHT22;7795;47.986;11.868;2023-04-24T11:02:46;16.90;64.80
15394;DHT22;7795;47.986;11.868;2023-04-24T11:05:19;16.90;65.00
15394;DHT22;7795;47.986;11.868;2023-04-24T11:08:10;17.00;64.80
15394;DHT22;7795;47.986;11.868;2023-04-24T11:10:46;17.00;63.70
15394;DHT22;7795;47.986;11.868;2023-04-24T11:13:15;17.00;63.90
15394;DHT22;7795;47.986;11.868;2023-04-24T11:15:42;17.00;63.70
15394;DHT22;7795;47.986;11.868;2023-04-24T11:18:13;17.00;63.40
15394;DHT22;7795;47.986;11.868;2023-04-24T11:20:42;17.00;64.50
15394;DHT22;7795;47.986;11.868;2023-04-24T11:23:08;17.00;63.80
15394;DHT22;7795;47.986;11.868;2023-04-24T11:25:35;16.90;64.10
15394;DHT22;7795;47.986;11.868;2023-04-24T11:28:05;16.80;64.00
15394;DHT22;7795;47.986;11.868;2023-04-24T11:30:32;16.60;64.00
15394;DHT22;7795;47.986;11.868;2023-04-24T11:33:04;16.40;64.70
15394;DHT22;7795;47.986;11.868;2023-04-24T11:35:30;16.30;65.50
15394;DHT22;7795;47.986;11.868;2023-04-24T11:38:00;16.20;65.70
15394;DHT22;7795;47.986;11.868;2023-04-24T11:40:28;16.10;66.20
15394;DHT22;7795;47.986;11.868;2023-04-24T11:42:54;16.10;66.40
15394;DHT22;7795;47.986;11.868;2023-04-24T11:45:24;16.10;66.20
15394;DHT22;7795;47.986;11.868;2023-04-24T11:47:51;16.00;65.80
15394;DHT22;7795;47.986;11.868;2023-04-24T11:50:19;16.00;66.00
15394;DHT22;7795;47.986;11.868;2023-04-24T11:52:46;16.00;65.80
15394;DHT22;7795;47.986;11.868;2023-04-24T11:55:23;16.00;65.80
15394;DHT22;7795;47.986;11.868;2023-04-24T11:57:53;16.00;65.30
15394;DHT22;7795;47.986;11.868;2023-04-24T12:00:20;16.10;65.30
15394;DHT22;7795;47.986;11.868;2023-04-24T12:02:46;16.10;65.10
15394;DHT22;7795;47.986;11.868;2023-04-24T12:05:20;16.10;64.10
15394;DHT22;7795;47.986;11.868;2023-04-24T12:07:46;16.10;65.00
15394;DHT22;7795;47.986;11.868;2023-04-24T12:10:12;16.10;65.40
15394;DHT22;7795;47.986;11.868;2023-04-24T12:12:38;16.20;65.60
15394;DHT22;7795;47.986;11.868;2023-04-24T12:15:07;16.20;65.20
15394;DHT22;7795;47.986;11.868;2023-04-24T12:17:34;16.30;65.50
15394;DHT22;7795;47.986;11.868;2023-04-24T12:20:01;16.30;65.90
15394;DHT22;7795;47.986;11.868;2023-04-24T12:22:43;16.40;65.80
15394;DHT22;7795;47.986;11.868;2023-04-24T12:25:10;16.40;65.10
15394;DHT22;7795;47.986;11.868;2023-04-24T12:27:36;16.50;65.30
15394;DHT22;7795;47.986;11.868;2023-04-24T12:30:04;16.50;65.10
15394;DHT22;7795;47.986;11.868;2023-04-24T12:32:30;16.60;65.10
15394;DHT22;7795;47.986;11.868;2023-04-24T12:34:56;16.60;65.30
15394;DHT22;7795;47.986;11.868;2023-04-24T12:37:24;16.60;65.30
15394;DHT22;7795;47.986;11.868;2023-04-24T12:40:06;16.60;65.30
15394;DHT22;7795;47.986;11.868;2023-04-24T12:42:32;16.60;65.20
15394;DHT22;7795;47.986;11.868;2023-04-24T12:45:00;16.40;64.60
15394;DHT22;7795;47.986;11.868;2023-04-24T12:47:27;16.30;64.60
15394;DHT22;7795;47.986;11.868;2023-04-24T12:49:53;16.00;65.10
15394;DHT22;7795;47.986;11.868;2023-04-24T12:52:18;15.80;65.70
15394;DHT22;7795;47.986;11.868;2023-04-24T12:54:45;15.60;66.10
15394;DHT22;7795;47.986;11.868;2023-04-24T12:57:12;15.40;66.60
15394;DHT22;7795;47.986;11.868;2023-04-24T12:59:38;15.20;66.90
15394;DHT22;7795;47.986;11.868;2023-04-24T13:02:04;15.00;66.90
15394;DHT22;7795;47.986;11.868;2023-04-24T13:04:30;14.90;67.30
15394;DHT22;7795;47.986;11.868;2023-04-24T13:06:56;14.70;67.80
15394;DHT22;7795;47.986;11.868;2023-04-24T13:09:22;14.60;68.20
15394;DHT22;7795;47.986;11.868;2023-04-24T13:11:49;14.50;68.30
15394;DHT22;7795;47.986;11.868;2023-04-24T13:14:16;14.40;68.30
15394;DHT22;7795;47.986;11.868;2023-04-24T13:16:42;14.40;68.60
15394;DHT22;7795;47.986;11.868;2023-04-24T13:19:08;14.20;68.90
15394;DHT22;7795;47.986;11.868;2023-04-24T13:21:34;14.20;69.20
15394;DHT22;7795;47.986;11.868;2023-04-24T13:23:59;14.10;69.50
15394;DHT22;7795;47.986;11.868;2023-04-24T13:26:26;14.00;69.90
15394;DHT22;7795;47.986;11.868;2023-04-24T13:28:51;14.00;70.40
15394;DHT22;7795;47.986;11.868;2023-04-24T13:31:18;14.00;70.70
15394;DHT22;7795;47.986;11.868;2023-04-24T13:33:44;13.90;70.50
15394;DHT22;7795;47.986;11.868;2023-04-24T13:36:10;13.90;70.70
15394;DHT22;7795;47.986;11.868;2023-04-24T13:38:36;14.00;71.30
15394;DHT22;7795;47.986;11.868;2023-04-24T13:41:02;14.00;71.50
15394;DHT22;7795;47.986;11.868;2023-04-24T13:43:28;14.00;71.40
15394;DHT22;7795;47.986;11.868;2023-04-24T13:45:54;14.10;71.40
15394;DHT22;7795;47.986;11.868;2023-04-24T13:48:21;14.10;71.50
15394;DHT22;7795;47.986;11.868;2023-04-24T13:50:47;14.20;71.20
15394;DHT22;7795;47.986;11.868;2023-04-24T13:53:14;14.40;71.10
15394;DHT22;7795;47.986;11.868;2023-04-24T13:55:40;14.40;71.00
15394;DHT22;7795;47.986;11.868;2023-04-24T13:58:06;14.50;70.80
15394;DHT22;7795;47.986;11.868;2023-04-24T14:00:33;14.60;70.30
15394;DHT22;7795;47.986;11.868;2023-04-24T14:02:59;14.70;70.20
15394;DHT22;7795;47.986;11.868;2023-04-24T14:05:26;14.70;70.10
15394;DHT22;7795;47.986;11.868;2023-04-24T14:07:52;14.80;69.80
15394;DHT22;7795;47.986;11.868;2023-04-24T14:10:18;14.90;69.40
15394;DHT22;7795;47.986;11.868;2023-04-24T14:12:43;14.90;69.10
15394;DHT22;7795;47.986;11.868;2023-04-24T14:15:10;14.90;68.70
15394;DHT22;7795;47.986;11.868;2023-04-24T14:17:37;14.90;68.20
15394;DHT22;7795;47.986;11.868;2023-04-24T14:20:04;14.90;67.80
15394;DHT22;7795;47.986;11.868;2023-04-24T14:22:31;14.80;67.50
15394;DHT22;7795;47.986;11.868;2023-04-24T14:24:57;14.70;66.50
15394;DHT22;7795;47.986;11.868;2023-04-24T14:27:23;14.70;66.90
15394;DHT22;7795;47.986;11.868;2023-04-24T14:29:49;14.70;67.30
15394;DHT22;7795;47.986;11.868;2023-04-24T14:32:15;14.70;67.20
15394;DHT22;7795;47.986;11.868;2023-04-24T14:34:41;14.70;67.10
15394;DHT22;7795;47.986;11.868;2023-04-24T14:37:07;14.70;67.40
15394;DHT22;7795;47.986;11.868;2023-04-24T14:39:34;14.70;67.40
15394;DHT22;7795;47.986;11.868;2023-04-24T14:42:00;14.70;67.40
15394;DHT22;7795;47.986;11.868;2023-04-24T14:44:27;14.70;67.60
15394;DHT22;7795;47.986;11.868;2023-04-24T14:46:52;14.70;67.90
15394;DHT22;7795;47.986;11.868;2023-04-24T14:49:19;14.70;68.00
15394;DHT22;7795;47.986;11.868;2023-04-24T14:51:44;14.80;67.50
15394;DHT22;7795;47.986;11.868;2023-04-24T14:54:10;14.80;67.10
15394;DHT22;7795;47.986;11.868;2023-04-24T14:56:38;14.80;67.10
15394;DHT22;7795;47.986;11.868;2023-04-24T14:59:06;14.80;66.70
15394;DHT22;7795;47.986;11.868;2023-04-24T15:01:32;14.90;66.70
15394;DHT22;7795;47.986;11.868;2023-04-24T15:03:58;14.90;66.50
15394;DHT22;7795;47.986;11.868;2023-04-24T15:06:24;14.90;66.30
15394;DHT22;7795;47.986;11.868;2023-04-24T15:08:50;15.00;66.50
15394;DHT22;7795;47.986;11.868;2023-04-24T15:11:16;15.00;66.50
15394;DHT22;7795;47.986;11.868;2023-04-24T15:13:43;15.00;66.20
15394;DHT22;7795;47.986;11.868;2023-04-24T15:16:10;15.10;66.00
15394;DHT22;7795;47.986;11.868;2023-04-24T15:18:36;15.10;65.80
15394;DHT22;7795;47.986;11.868;2023-04-24T15:21:02;15.20;66.10
15394;DHT22;7795;47.986;11.868;2023-04-24T15:23:28;15.20;66.20
15394;DHT22;7795;47.986;11.868;2023-04-24T15:25:54;15.30;66.10
15394;DHT22;7795;47.986;11.868;2023-04-24T15:28:20;15.30;65.80